createdAt,value
2019-01-26T00:02:25.616Z,99.90
2019-01-26T00:05:03.814Z,99.90
2019-01-26T00:07:40.494Z,99.90
2019-01-26T00:10:15.217Z,99.90
2019-01-26T00:12:51.616Z,99.90
2019-01-26T00:15:30.880Z,99.90
2019-01-26T00:18:09.418Z,99.90
2019-01-26T00:20:44.217Z,99.90
2019-01-26T00:23:19.866Z,99.90
2019-01-26T00:25:56.531Z,99.90
2019-01-26T00:28:33.245Z,99.90
2019-01-26T00:31:06.983Z,99.90
2019-01-26T00:33:45.081Z,99.90
2019-01-26T00:36:20.007Z,99.90
2019-01-26T00:38:57.970Z,99.90
2019-01-26T00:41:35.026Z,99.90
2019-01-26T00:44:11.733Z,99.90
2019-01-26T00:46:48.707Z,99.90
2019-01-26T00:49:26.202Z,99.90
2019-01-26T00:52:03.109Z,99.90
2019-01-26T00:54:36.840Z,99.90
2019-01-26T00:57:17.315Z,99.90
2019-01-26T00:59:51.556Z,99.90
2019-01-26T01:02:25.999Z,99.90
2019-01-26T01:05:01.263Z,99.90
2019-01-26T01:07:34.600Z,99.90
2019-01-26T01:10:12.556Z,99.90
2019-01-26T01:12:48.921Z,99.90
2019-01-26T01:15:22.980Z,99.90
2019-01-26T01:17:57.907Z,99.90
2019-01-26T01:20:32.997Z,99.90
2019-01-26T01:23:06.886Z,99.90
2019-01-26T01:25:42.417Z,99.90
2019-01-26T01:28:16.430Z,99.90
2019-01-26T01:30:48.686Z,99.90
2019-01-26T01:33:24.788Z,99.90
2019-01-26T01:36:01.865Z,99.90
2019-01-26T01:38:36.084Z,99.90
2019-01-26T01:41:13.423Z,99.90
2019-01-26T01:43:48.535Z,99.90
2019-01-26T01:46:26.444Z,99.90
2019-01-26T01:49:01.151Z,99.90
2019-01-26T01:51:35.487Z,99.90
2019-01-26T01:54:12.466Z,99.90
2019-01-26T01:56:46.813Z,99.90
2019-01-26T01:59:27.345Z,99.90
2019-01-26T02:02:01.321Z,99.90
2019-01-26T02:04:35.448Z,99.90
2019-01-26T02:07:09.515Z,99.90
2019-01-26T02:09:45.675Z,99.90
2019-01-26T02:12:22.107Z,99.90
2019-01-26T02:14:57.493Z,99.90
2019-01-26T02:17:31.284Z,99.90
2019-01-26T02:20:04.170Z,99.90
2019-01-26T02:22:40.812Z,99.90
2019-01-26T02:25:16.391Z,99.90
2019-01-26T02:27:51.990Z,99.90
2019-01-26T02:30:29.928Z,99.90
2019-01-26T02:33:06.769Z,99.90
2019-01-26T02:35:39.754Z,99.90
2019-01-26T02:38:12.148Z,99.90
2019-01-26T02:40:46.222Z,99.90
2019-01-26T02:43:23.663Z,99.90
2019-01-26T02:46:03.992Z,99.90
2019-01-26T02:48:35.352Z,99.90
2019-01-26T02:51:13.372Z,99.90
2019-01-26T02:53:56.188Z,99.90
2019-01-26T02:56:29.137Z,99.90
2019-01-26T02:59:06.269Z,99.90
2019-01-26T03:01:41.065Z,99.90
2019-01-26T03:04:16.118Z,99.90
2019-01-26T03:06:52.041Z,99.90
2019-01-26T03:09:27.902Z,99.90
2019-01-26T03:12:03.664Z,99.90
2019-01-26T03:14:38.979Z,99.90
2019-01-26T03:17:17.628Z,99.90
2019-01-26T03:19:53.194Z,99.90
2019-01-26T03:22:26.527Z,99.90
2019-01-26T03:25:00.986Z,99.90
2019-01-26T03:27:35.030Z,99.90
2019-01-26T03:30:14.039Z,99.90
2019-01-26T03:32:49.830Z,99.90
2019-01-26T03:35:24.526Z,99.90
2019-01-26T03:37:59.950Z,99.90
2019-01-26T03:40:34.882Z,99.90
2019-01-26T03:43:08.606Z,99.90
2019-01-26T03:45:42.530Z,99.90
2019-01-26T03:48:17.775Z,99.90
2019-01-26T03:50:50.784Z,99.90
2019-01-26T03:53:26.433Z,99.90
2019-01-26T03:56:02.121Z,99.90
2019-01-26T03:58:35.828Z,99.90
2019-01-26T04:01:08.755Z,99.90
2019-01-26T04:03:42.838Z,99.90
2019-01-26T04:06:22.403Z,99.90
2019-01-26T04:08:56.707Z,99.90
2019-01-26T04:11:31.127Z,99.90
2019-01-26T04:14:05.184Z,99.90
2019-01-26T04:16:40.820Z,99.90
2019-01-26T04:19:14.409Z,99.90
2019-01-26T04:21:52.052Z,99.90
2019-01-26T04:24:25.858Z,99.90
2019-01-26T04:27:01.267Z,99.90
2019-01-26T04:29:36.541Z,99.90
2019-01-26T04:32:15.743Z,99.90
2019-01-26T04:34:49.742Z,99.90
2019-01-26T04:37:23.307Z,99.90
2019-01-26T04:39:57.622Z,99.90
2019-01-26T04:42:32.111Z,99.90
2019-01-26T04:45:09.057Z,99.90
2019-01-26T04:47:42.483Z,99.90
2019-01-26T04:50:16.703Z,99.90
2019-01-26T04:52:52.268Z,99.90
2019-01-26T04:55:26.741Z,99.90
2019-01-26T04:58:00.244Z,99.90
2019-01-26T05:00:33.169Z,99.90
2019-01-26T05:03:10.364Z,99.90
2019-01-26T05:05:45.965Z,99.90
2019-01-26T05:08:21.878Z,99.90
2019-01-26T05:10:56.805Z,99.90
2019-01-26T05:13:31.474Z,99.90
2019-01-26T05:16:08.292Z,99.90
2019-01-26T05:18:42.497Z,99.90
2019-01-26T05:21:16.625Z,99.90
2019-01-26T05:23:52.567Z,99.90
2019-01-26T05:26:29.008Z,99.90
2019-01-26T05:29:08.251Z,99.90
2019-01-26T05:31:44.051Z,99.90
2019-01-26T05:34:16.895Z,99.90
2019-01-26T05:36:53.063Z,99.90
2019-01-26T05:39:28.407Z,99.90
2019-01-26T05:42:04.850Z,99.90
2019-01-26T05:44:37.895Z,99.90
2019-01-26T05:47:21.113Z,99.90
2019-01-26T05:49:59.608Z,99.90
2019-01-26T05:52:33.786Z,99.90
2019-01-26T05:55:10.624Z,99.90
2019-01-26T05:57:45.006Z,99.90
2019-01-26T06:00:26.504Z,99.90
2019-01-26T06:03:02.154Z,99.90
2019-01-26T06:05:36.969Z,99.90
2019-01-26T06:08:11.396Z,99.90
2019-01-26T06:10:46.132Z,99.90
2019-01-26T06:13:22.209Z,99.90
2019-01-26T06:15:58.405Z,99.90
2019-01-26T06:18:33.371Z,99.90
2019-01-26T06:21:09.893Z,99.90
2019-01-26T06:23:44.179Z,99.90
2019-01-26T06:26:20.875Z,99.90
2019-01-26T06:28:56.888Z,99.90
2019-01-26T06:31:33.575Z,99.90
2019-01-26T06:34:10.100Z,99.90
2019-01-26T06:36:45.717Z,99.90
2019-01-26T06:39:21.805Z,99.90
2019-01-26T06:41:58.043Z,99.90
2019-01-26T06:44:32.862Z,99.90
2019-01-26T06:47:06.680Z,99.90
2019-01-26T06:49:43.095Z,99.90
2019-01-26T06:52:18.654Z,99.90
2019-01-26T06:54:52.107Z,99.90
2019-01-26T06:57:28.471Z,99.90
2019-01-26T07:00:02.110Z,99.90
2019-01-26T07:02:39.424Z,99.90
2019-01-26T07:05:21.961Z,99.90
2019-01-26T07:07:57.895Z,99.90
2019-01-26T07:10:33.347Z,99.90
2019-01-26T07:13:08.983Z,99.90
2019-01-26T07:15:45.895Z,99.90
2019-01-26T07:18:23.638Z,99.90
2019-01-26T07:20:57.753Z,99.90
2019-01-26T07:23:35.672Z,99.90
2019-01-26T07:26:12.140Z,99.90
2019-01-26T07:28:46.532Z,99.90
2019-01-26T07:31:22.450Z,99.90
2019-01-26T07:33:58.041Z,99.90
2019-01-26T07:36:32.040Z,99.90
2019-01-26T07:39:09.010Z,99.90
2019-01-26T07:41:44.896Z,99.90
2019-01-26T07:44:19.741Z,99.90
2019-01-26T07:46:53.291Z,99.90
2019-01-26T07:49:27.271Z,99.90
2019-01-26T07:52:02.637Z,99.90
2019-01-26T07:54:39.054Z,99.90
2019-01-26T07:57:13.014Z,99.90
2019-01-26T07:59:48.233Z,99.90
2019-01-26T08:02:22.389Z,99.90
2019-01-26T08:04:56.698Z,99.90
2019-01-26T08:07:31.349Z,99.90
2019-01-26T08:10:06.493Z,99.90
2019-01-26T08:12:41.875Z,99.90
2019-01-26T08:15:22.074Z,99.90
2019-01-26T08:18:00.092Z,99.90
2019-01-26T08:20:40.475Z,99.90
2019-01-26T08:23:14.500Z,99.90
2019-01-26T08:25:49.454Z,99.90
2019-01-26T08:28:24.723Z,99.90
2019-01-26T08:31:03.810Z,99.90
2019-01-26T08:33:39.046Z,99.90
2019-01-26T08:36:16.994Z,99.90
2019-01-26T08:38:51.641Z,99.90
2019-01-26T08:41:28.446Z,99.90
2019-01-26T08:44:02.963Z,99.70
2019-01-26T08:46:38.901Z,99.30
2019-01-26T08:49:15.189Z,98.80
2019-01-26T08:51:50.847Z,98.80
2019-01-26T08:54:24.349Z,98.10
2019-01-26T08:57:01.208Z,97.90
2019-01-26T08:59:38.932Z,98.10
2019-01-26T09:02:37.760Z,96.70
2019-01-26T09:05:15.812Z,96.80
2019-01-26T09:07:53.651Z,96.20
2019-01-26T09:10:29.646Z,96.70
2019-01-26T09:13:04.312Z,96.60
2019-01-26T09:15:43.824Z,95.80
2019-01-26T09:18:19.613Z,96.80
2019-01-26T09:20:55.557Z,95.90
2019-01-26T09:23:31.784Z,95.60
2019-01-26T09:26:10.083Z,95.50
2019-01-26T09:28:51.171Z,95.10
2019-01-26T09:31:37.172Z,95.00
2019-01-26T09:34:15.942Z,94.90
2019-01-26T09:36:54.736Z,94.50
2019-01-26T09:39:28.049Z,93.80
2019-01-26T09:42:06.943Z,91.80
2019-01-26T09:44:49.846Z,91.40
2019-01-26T09:47:24.245Z,90.70
2019-01-26T09:49:58.842Z,90.60
2019-01-26T09:52:35.724Z,90.30
2019-01-26T09:55:12.408Z,88.60
2019-01-26T09:57:47.023Z,87.40
2019-01-26T10:00:24.960Z,86.50
2019-01-26T10:03:01.848Z,84.80
2019-01-26T10:05:37.343Z,85.50
2019-01-26T10:08:16.840Z,83.80
2019-01-26T10:10:55.320Z,83.60
2019-01-26T10:13:34.532Z,81.80
2019-01-26T10:16:08.785Z,81.40
2019-01-26T10:18:53.354Z,81.50
2019-01-26T10:21:24.030Z,81.70
2019-01-26T10:23:59.865Z,81.40
2019-01-26T10:26:37.912Z,80.50
2019-01-26T10:29:19.915Z,79.60
2019-01-26T10:31:55.887Z,78.90
2019-01-26T10:34:34.076Z,79.30
2019-01-26T10:37:15.209Z,79.90
2019-01-26T10:39:50.422Z,81.70
2019-01-26T10:42:28.165Z,79.30
2019-01-26T10:45:01.812Z,78.40
2019-01-26T10:47:35.963Z,76.70
2019-01-26T10:50:15.132Z,76.20
2019-01-26T10:52:57.331Z,77.80
2019-01-26T10:55:34.991Z,76.20
2019-01-26T10:58:09.625Z,74.60
2019-01-26T11:00:46.287Z,72.50
2019-01-26T11:03:18.959Z,73.00
2019-01-26T11:05:53.231Z,70.00
2019-01-26T11:08:29.348Z,67.80
2019-01-26T11:11:05.503Z,68.10
2019-01-26T11:13:38.844Z,65.20
2019-01-26T11:16:14.587Z,62.80
2019-01-26T11:18:47.786Z,64.20
2019-01-26T11:21:23.681Z,63.90
2019-01-26T11:23:58.385Z,63.30
2019-01-26T11:26:36.813Z,64.30
2019-01-26T11:29:11.849Z,63.00
2019-01-26T11:31:47.615Z,62.50
2019-01-26T11:34:23.964Z,62.70
2019-01-26T11:36:59.587Z,63.30
2019-01-26T11:39:34.822Z,61.90
2019-01-26T11:42:11.569Z,62.50
2019-01-26T11:45:06.190Z,62.00
2019-01-26T11:47:42.081Z,60.50
2019-01-26T11:50:25.379Z,59.70
2019-01-26T11:53:04.236Z,60.40
2019-01-26T11:55:45.973Z,58.70
2019-01-26T11:58:19.957Z,60.90
2019-01-26T12:01:26.563Z,64.20
2019-01-26T12:04:31.809Z,65.80
2019-01-26T12:07:15.000Z,65.30
2019-01-26T12:09:52.180Z,61.80
2019-01-26T12:12:24.915Z,65.30
2019-01-26T12:15:02.384Z,59.20
2019-01-26T12:17:36.645Z,58.70
2019-01-26T12:20:14.205Z,57.10
2019-01-26T12:22:49.571Z,56.90
2019-01-26T12:25:25.589Z,60.00
2019-01-26T12:27:59.434Z,59.70
2019-01-26T12:30:34.131Z,58.70
2019-01-26T12:33:09.366Z,57.30
2019-01-26T12:35:45.322Z,59.30
2019-01-26T12:38:20.789Z,56.90
2019-01-26T12:40:57.566Z,55.50
2019-01-26T12:43:30.680Z,55.40
2019-01-26T12:46:06.865Z,56.60
2019-01-26T12:48:40.272Z,54.50
2019-01-26T12:51:14.846Z,55.90
2019-01-26T12:53:55.533Z,55.60
2019-01-26T12:56:31.609Z,55.30
2019-01-26T12:59:12.222Z,55.10
2019-01-26T13:01:46.964Z,54.10
2019-01-26T13:04:20.742Z,53.60
2019-01-26T13:06:55.939Z,53.70
2019-01-26T13:09:29.655Z,55.70
2019-01-26T13:12:07.966Z,55.90
2019-01-26T13:14:45.944Z,57.00
2019-01-26T13:17:23.556Z,56.80
2019-01-26T13:20:15.760Z,56.90
2019-01-26T13:22:53.562Z,57.30
2019-01-26T13:25:29.515Z,54.90
2019-01-26T13:28:08.740Z,56.50
2019-01-26T13:30:46.588Z,58.70
2019-01-26T13:33:23.564Z,58.10
2019-01-26T13:36:00.338Z,60.40
2019-01-26T13:38:35.682Z,59.40
2019-01-26T13:41:13.382Z,58.40
2019-01-26T13:43:49.670Z,58.10
2019-01-26T13:46:28.351Z,57.90
2019-01-26T13:49:03.379Z,58.00
2019-01-26T13:51:54.066Z,57.30
2019-01-26T13:54:30.996Z,57.20
2019-01-26T13:57:11.970Z,57.70
2019-01-26T13:59:50.010Z,58.00
2019-01-26T14:02:23.117Z,57.70
2019-01-26T14:04:55.208Z,56.50
2019-01-26T14:07:27.636Z,56.30
2019-01-26T14:09:59.528Z,56.30
2019-01-26T14:12:31.396Z,55.60
2019-01-26T14:15:03.502Z,55.10
2019-01-26T14:17:35.185Z,54.90
2019-01-26T14:20:09.846Z,55.20
2019-01-26T14:22:41.883Z,55.10
2019-01-26T14:25:13.893Z,56.50
2019-01-26T14:27:45.823Z,56.00
2019-01-26T14:30:34.505Z,56.90
2019-01-26T14:33:06.929Z,57.10
2019-01-26T14:35:38.876Z,56.00
2019-01-26T14:38:11.080Z,55.70
2019-01-26T14:40:42.934Z,56.00
2019-01-26T14:43:14.698Z,54.30
2019-01-26T14:45:46.852Z,53.90
2019-01-26T14:48:18.678Z,54.40
2019-01-26T14:50:50.474Z,54.10
2019-01-26T14:53:22.302Z,54.30
2019-01-26T14:55:54.203Z,53.10
2019-01-26T14:58:26.519Z,55.10
2019-01-26T15:00:58.680Z,55.00
2019-01-26T15:03:30.349Z,55.80
2019-01-26T15:06:04.245Z,55.90
2019-01-26T15:08:36.663Z,56.80
2019-01-26T15:11:09.326Z,53.00
2019-01-26T15:13:40.999Z,53.60
2019-01-26T15:16:12.983Z,54.40
2019-01-26T15:18:45.139Z,55.00
2019-01-26T15:21:19.570Z,55.10
2019-01-26T15:23:51.350Z,55.40
2019-01-26T15:26:23.158Z,56.00
2019-01-26T15:28:54.955Z,56.20
2019-01-26T15:31:26.622Z,57.10
2019-01-26T15:33:58.314Z,57.40
2019-01-26T15:36:30.246Z,58.10
2019-01-26T15:39:09.219Z,58.80
2019-01-26T15:41:41.774Z,58.90
2019-01-26T15:44:16.682Z,59.50
2019-01-26T15:46:49.981Z,59.50
2019-01-26T15:49:23.644Z,59.40
2019-01-26T15:51:55.600Z,59.40
2019-01-26T15:54:27.712Z,61.70
2019-01-26T15:57:02.198Z,62.30
2019-01-26T15:59:34.261Z,62.70
2019-01-26T16:02:06.309Z,64.70
2019-01-26T16:04:38.796Z,67.00
2019-01-26T16:07:10.608Z,65.20
2019-01-26T16:09:43.779Z,66.50
2019-01-26T16:12:15.839Z,68.10
2019-01-26T16:14:48.352Z,68.60
2019-01-26T16:17:21.136Z,67.20
2019-01-26T16:19:54.031Z,71.10
2019-01-26T16:22:26.718Z,72.80
2019-01-26T16:24:59.411Z,72.10
2019-01-26T16:27:31.696Z,71.00
2019-01-26T16:30:03.619Z,73.40
2019-01-26T16:32:36.087Z,73.60
2019-01-26T16:35:11.256Z,74.80
2019-01-26T16:37:42.882Z,76.10
2019-01-26T16:40:19.475Z,75.70
2019-01-26T16:42:51.510Z,75.90
2019-01-26T16:45:30.472Z,75.60
2019-01-26T16:48:02.564Z,77.20
2019-01-26T16:50:34.680Z,78.60
2019-01-26T16:53:06.931Z,82.50
2019-01-26T16:55:39.072Z,83.60
2019-01-26T16:58:11.583Z,84.00
2019-01-26T17:00:54.062Z,84.70
2019-01-26T17:03:27.624Z,86.40
2019-01-26T17:06:00.923Z,89.30
2019-01-26T17:08:34.469Z,89.80
2019-01-26T17:11:07.097Z,90.10
2019-01-26T17:13:39.335Z,90.40
2019-01-26T17:16:13.384Z,90.70
2019-01-26T17:18:46.415Z,91.10
2019-01-26T17:21:20.531Z,91.50
2019-01-26T17:23:52.282Z,91.70
2019-01-26T17:26:24.566Z,90.90
2019-01-26T17:28:56.739Z,90.30
2019-01-26T17:31:29.163Z,89.40
2019-01-26T17:34:01.377Z,90.90
2019-01-26T17:36:34.200Z,91.90
2019-01-26T17:39:13.782Z,91.80
2019-01-26T17:41:46.837Z,93.50
2019-01-26T17:44:19.959Z,94.40
2019-01-26T17:46:53.220Z,94.40
2019-01-26T17:49:24.882Z,95.00
2019-01-26T17:51:58.562Z,95.40
2019-01-26T17:54:32.203Z,95.50
2019-01-26T17:57:04.961Z,95.50
2019-01-26T17:59:38.807Z,95.30
2019-01-26T18:02:14.576Z,95.60
2019-01-26T18:04:49.528Z,95.20
2019-01-26T18:07:22.140Z,94.60
2019-01-26T18:09:56.012Z,94.30
2019-01-26T18:12:28.767Z,95.00
2019-01-26T18:15:02.134Z,96.30
2019-01-26T18:17:35.228Z,98.70
2019-01-26T18:20:09.712Z,99.90
2019-01-26T18:22:41.922Z,99.90
2019-01-26T18:25:14.107Z,99.90
2019-01-26T18:27:46.042Z,99.90
2019-01-26T18:30:22.329Z,99.90
2019-01-26T18:32:55.318Z,99.90
2019-01-26T18:35:28.109Z,99.90
2019-01-26T18:38:01.047Z,99.90
2019-01-26T18:40:33.025Z,99.90
2019-01-26T18:43:06.040Z,99.90
2019-01-26T18:45:39.141Z,99.90
2019-01-26T18:48:11.146Z,99.90
2019-01-26T18:50:46.407Z,99.90
2019-01-26T18:53:19.765Z,99.90
2019-01-26T18:55:53.110Z,99.90
2019-01-26T18:58:28.905Z,99.90
2019-01-26T19:01:00.992Z,99.90
2019-01-26T19:04:11.791Z,99.90
2019-01-26T19:06:43.623Z,99.90
2019-01-26T19:09:16.345Z,99.90
2019-01-26T19:11:51.106Z,99.90
2019-01-26T19:14:23.286Z,99.90
2019-01-26T19:16:57.724Z,99.90
2019-01-26T19:19:29.876Z,99.90
2019-01-26T19:22:01.925Z,99.90
2019-01-26T19:24:34.019Z,99.90
2019-01-26T19:27:07.411Z,99.90
2019-01-26T19:29:40.171Z,99.90
2019-01-26T19:32:12.501Z,99.90
2019-01-26T19:34:44.716Z,99.90
2019-01-26T19:37:17.241Z,99.90
2019-01-26T19:39:52.659Z,99.90
2019-01-26T19:42:28.021Z,99.90
2019-01-26T19:45:02.819Z,99.90
2019-01-26T19:47:34.953Z,99.90
2019-01-26T19:50:08.701Z,99.90
2019-01-26T19:52:41.332Z,99.90
2019-01-26T19:55:14.349Z,99.90
2019-01-26T19:57:46.803Z,99.90
2019-01-26T20:00:19.453Z,99.90
2019-01-26T20:02:55.107Z,99.90
2019-01-26T20:05:29.438Z,99.90
2019-01-26T20:08:02.036Z,99.90
2019-01-26T20:10:36.050Z,99.90
2019-01-26T20:13:09.087Z,99.90
2019-01-26T20:15:42.916Z,99.90
2019-01-26T20:18:15.856Z,99.90
2019-01-26T20:20:48.372Z,99.90
2019-01-26T20:23:21.793Z,99.90
2019-01-26T20:25:54.846Z,99.90
2019-01-26T20:28:28.307Z,99.90
2019-01-26T20:31:01.161Z,99.90
2019-01-26T20:33:41.788Z,99.90
2019-01-26T20:36:14.885Z,99.90
2019-01-26T20:38:49.458Z,99.90
2019-01-26T20:41:23.033Z,99.90
2019-01-26T20:43:57.429Z,99.90
2019-01-26T20:46:32.849Z,99.90
2019-01-26T20:49:05.912Z,99.90
2019-01-26T20:51:41.343Z,99.90
2019-01-26T20:54:15.394Z,99.90
2019-01-26T20:56:48.453Z,99.90
2019-01-26T20:59:22.414Z,99.90
2019-01-26T21:01:56.890Z,99.90
2019-01-26T21:04:31.932Z,99.90
2019-01-26T21:07:04.973Z,99.90
2019-01-26T21:09:38.062Z,99.90
2019-01-26T21:12:12.302Z,99.90
2019-01-26T21:14:44.979Z,99.90
2019-01-26T21:17:19.907Z,99.90
2019-01-26T21:19:52.988Z,99.90
2019-01-26T21:22:26.513Z,99.90
2019-01-26T21:25:01.329Z,99.90
2019-01-26T21:27:33.828Z,99.90
2019-01-26T21:30:10.908Z,99.90
2019-01-26T21:32:43.381Z,99.90
2019-01-26T21:35:16.411Z,99.90
2019-01-26T21:37:50.555Z,99.90
2019-01-26T21:40:27.207Z,99.90
2019-01-26T21:43:00.106Z,99.90
2019-01-26T21:45:32.541Z,99.90
2019-01-26T21:48:07.212Z,99.90
2019-01-26T21:50:40.122Z,99.90
2019-01-26T21:53:12.116Z,99.90
2019-01-26T21:55:48.043Z,99.90
2019-01-26T21:58:20.320Z,99.90
2019-01-26T22:00:57.647Z,99.90
2019-01-26T22:03:29.583Z,99.90
2019-01-26T22:06:03.581Z,99.90
2019-01-26T22:08:35.590Z,99.90
2019-01-26T22:11:07.825Z,99.90
2019-01-26T22:13:39.783Z,99.90
2019-01-26T22:16:11.397Z,99.90
2019-01-26T22:18:43.261Z,99.90
2019-01-26T22:21:15.806Z,99.90
2019-01-26T22:23:47.594Z,99.90
2019-01-26T22:26:20.087Z,99.90
2019-01-26T22:28:52.569Z,99.90
2019-01-26T22:31:24.385Z,99.90
2019-01-26T22:33:57.629Z,99.90
2019-01-26T22:36:29.522Z,99.90
2019-01-26T22:39:02.440Z,99.90
2019-01-26T22:41:34.992Z,99.90
2019-01-26T22:44:07.402Z,99.90
2019-01-26T22:46:39.419Z,99.90
2019-01-26T22:49:11.342Z,99.90
2019-01-26T22:51:43.245Z,99.90
2019-01-26T22:54:15.904Z,99.90
2019-01-26T22:56:47.555Z,99.90
2019-01-26T22:59:19.844Z,99.90
2019-01-26T23:01:54.182Z,99.90
2019-01-26T23:04:58.818Z,99.90
2019-01-26T23:07:55.079Z,99.90
2019-01-26T23:11:05.945Z,99.90
2019-01-26T23:14:49.216Z,99.90
2019-01-26T23:17:44.321Z,99.90
2019-01-26T23:20:39.316Z,99.90
2019-01-26T23:24:09.688Z,99.90
2019-01-26T23:27:30.446Z,99.90
2019-01-26T23:30:49.531Z,99.90
2019-01-26T23:33:21.760Z,99.90
2019-01-26T23:35:53.811Z,99.90
2019-01-26T23:38:25.950Z,99.90
2019-01-26T23:40:58.133Z,99.90
2019-01-26T23:43:30.631Z,99.90
2019-01-26T23:46:03.114Z,99.90
2019-01-26T23:48:35.772Z,99.90
2019-01-26T23:51:08.790Z,99.90
2019-01-26T23:53:40.747Z,99.90
2019-01-26T23:56:12.769Z,99.90
2019-01-26T23:58:44.763Z,99.90
